createdAt,value
2023-04-19T04:01:27.073Z,99.90
2023-04-19T04:03:55.030Z,99.90
2023-04-19T04:06:22.982Z,99.90
2023-04-19T04:08:50.833Z,99.90
2023-04-19T04:11:18.659Z,99.90
2023-04-19T04:13:47.030Z,99.90
2023-04-19T04:16:14.794Z,99.90
2023-04-19T04:18:44.067Z,99.90
2023-04-19T04:21:11.909Z,99.90
2023-04-19T04:23:39.697Z,99.90
2023-04-19T04:26:09.793Z,99.90
2023-04-19T04:28:39.280Z,99.90
2023-04-19T04:31:07.174Z,99.90
2023-04-19T04:33:34.928Z,99.90
2023-04-19T04:36:05.228Z,99.90
2023-04-19T04:38:33.595Z,99.90
2023-04-19T04:41:01.761Z,99.90
2023-04-19T04:43:29.820Z,99.90
2023-04-19T04:45:58.257Z,99.90
2023-04-19T04:50:54.564Z,99.90
2023-04-19T04:53:23.936Z,99.90
2023-04-19T04:55:51.843Z,99.90
2023-04-19T04:58:20.558Z,99.90
2023-04-19T05:00:48.953Z,99.90
2023-04-19T05:03:16.952Z,99.90
2023-04-19T05:05:45.319Z,99.90
2023-04-19T05:08:13.366Z,99.90
2023-04-19T05:10:42.455Z,99.90
2023-04-19T05:13:10.484Z,99.90
2023-04-19T05:15:38.548Z,99.90
2023-04-19T05:18:07.227Z,99.90
2023-04-19T05:20:35.010Z,99.90
2023-04-19T05:25:35.491Z,99.90
2023-04-19T05:28:05.244Z,99.90
2023-04-19T05:30:33.074Z,99.90
2023-04-19T05:33:01.263Z,99.90
2023-04-19T05:35:29.079Z,99.90
2023-04-19T05:37:57.092Z,99.90
2023-04-19T05:40:24.857Z,99.90
2023-04-19T05:42:52.910Z,99.90
2023-04-19T05:45:23.155Z,99.90
2023-04-19T05:47:50.966Z,99.90
2023-04-19T05:50:20.526Z,99.90
2023-04-19T05:52:48.550Z,99.90
2023-04-19T05:55:16.350Z,99.90
2023-04-19T05:57:44.140Z,99.90
2023-04-19T06:00:13.042Z,99.90
2023-04-19T06:02:43.921Z,99.90
2023-04-19T06:05:12.334Z,99.90
2023-04-19T06:07:44.014Z,99.90
2023-04-19T06:10:22.099Z,99.90
2023-04-19T06:12:51.036Z,99.90
2023-04-19T06:15:18.870Z,99.90
2023-04-19T06:17:48.265Z,99.90
2023-04-19T06:20:19.399Z,99.90
2023-04-19T06:22:47.600Z,99.90
2023-04-19T06:25:15.454Z,99.90
2023-04-19T06:27:45.245Z,99.90
2023-04-19T06:30:13.858Z,99.90
2023-04-19T06:32:42.038Z,99.90
2023-04-19T06:35:12.815Z,99.90
2023-04-19T06:37:40.601Z,99.90
2023-04-19T06:40:09.570Z,99.90
2023-04-19T06:42:37.304Z,99.90
2023-04-19T06:45:06.196Z,99.90
2023-04-19T06:47:35.709Z,99.90
2023-04-19T06:50:03.726Z,99.90
2023-04-19T06:52:32.916Z,99.90
2023-04-19T06:55:00.775Z,99.90
2023-04-19T06:57:28.627Z,99.90
2023-04-19T07:02:26.349Z,99.90
2023-04-19T07:04:54.327Z,99.90
2023-04-19T07:07:22.369Z,99.90
2023-04-19T07:09:51.547Z,99.90
2023-04-19T07:12:19.480Z,99.90
2023-04-19T07:14:47.320Z,99.90
2023-04-19T07:17:15.102Z,99.90
2023-04-19T07:19:48.488Z,99.90
2023-04-19T07:22:16.491Z,99.90
2023-04-19T07:24:44.951Z,99.90
2023-04-19T07:27:16.424Z,99.90
2023-04-19T07:29:44.230Z,99.90
2023-04-19T07:32:13.646Z,99.90
2023-04-19T07:34:43.421Z,99.90
2023-04-19T07:37:11.234Z,99.90
2023-04-19T07:39:39.160Z,99.90
2023-04-19T07:42:06.989Z,99.90
2023-04-19T07:44:36.361Z,99.90
2023-04-19T07:47:05.417Z,99.90
2023-04-19T07:49:34.257Z,99.90
2023-04-19T07:52:02.941Z,99.90
2023-04-19T07:54:32.205Z,99.90
2023-04-19T07:57:00.128Z,99.90
2023-04-19T07:59:37.581Z,99.90
2023-04-19T08:02:05.713Z,99.90
2023-04-19T08:04:33.932Z,99.90
2023-04-19T08:07:03.786Z,99.90
2023-04-19T08:09:31.606Z,99.90
2023-04-19T08:11:59.546Z,99.90
2023-04-19T08:14:37.262Z,99.90
2023-04-19T08:17:25.296Z,99.90
2023-04-19T08:19:53.736Z,99.90
2023-04-19T08:22:22.195Z,99.90
2023-04-19T08:24:51.378Z,99.90
2023-04-19T08:27:19.460Z,99.90
2023-04-19T08:29:47.473Z,99.90
2023-04-19T08:32:16.850Z,99.90
2023-04-19T08:34:44.899Z,99.90
2023-04-19T08:37:12.677Z,99.90
2023-04-19T08:42:18.302Z,99.90
2023-04-19T08:45:25.522Z,99.90
2023-04-19T08:50:35.930Z,99.90
2023-04-19T08:53:23.974Z,99.90
2023-04-19T08:56:12.257Z,99.90
2023-04-19T09:01:26.271Z,99.90
2023-04-19T09:04:20.759Z,99.90
2023-04-19T09:06:50.569Z,99.90
2023-04-19T09:09:34.888Z,99.90
2023-04-19T09:12:17.519Z,99.90
2023-04-19T09:17:18.466Z,99.90
2023-04-19T09:19:51.201Z,99.90
2023-04-19T09:22:19.498Z,99.90
2023-04-19T09:27:27.273Z,99.90
2023-04-19T09:29:55.481Z,99.90
2023-04-19T09:32:23.586Z,99.90
2023-04-19T09:37:51.421Z,99.90
2023-04-19T09:40:24.350Z,99.90
2023-04-19T09:43:05.307Z,99.90
2023-04-19T09:45:57.515Z,99.90
2023-04-19T09:48:31.941Z,99.90
2023-04-19T09:51:08.772Z,99.90
2023-04-19T09:53:41.840Z,99.90
2023-04-19T09:56:12.719Z,99.90
2023-04-19T09:58:51.293Z,99.90
2023-04-19T10:01:27.113Z,99.90
2023-04-19T10:03:55.968Z,99.90
2023-04-19T10:08:56.836Z,99.90
2023-04-19T10:11:27.250Z,99.90
2023-04-19T10:13:58.519Z,99.90
2023-04-19T10:16:27.258Z,99.90
2023-04-19T10:18:56.146Z,99.90
2023-04-19T10:21:27.279Z,99.90
2023-04-19T10:23:55.655Z,99.90
2023-04-19T10:26:23.469Z,99.90
2023-04-19T10:28:51.497Z,99.90
2023-04-19T10:31:23.542Z,99.90
2023-04-19T10:33:52.438Z,99.90
2023-04-19T10:36:21.211Z,99.90
2023-04-19T10:38:53.551Z,99.90
2023-04-19T10:41:21.759Z,99.90
2023-04-19T10:44:10.316Z,99.90
2023-04-19T10:46:40.961Z,99.90
2023-04-19T10:49:09.777Z,99.90
2023-04-19T10:51:39.467Z,99.90
2023-04-19T10:54:10.090Z,99.90
2023-04-19T10:57:00.702Z,99.90
2023-04-19T10:59:31.688Z,99.90
2023-04-19T11:02:00.972Z,99.90
2023-04-19T11:05:01.209Z,99.90
2023-04-19T11:07:29.335Z,99.90
2023-04-19T11:09:58.418Z,99.90
2023-04-19T11:12:26.479Z,99.90
2023-04-19T11:14:57.593Z,97.70
2023-04-19T11:17:27.812Z,98.20
2023-04-19T11:19:57.669Z,99.90
2023-04-19T11:22:33.292Z,99.90
2023-04-19T11:25:13.135Z,98.50
2023-04-19T11:27:42.728Z,97.30
2023-04-19T11:30:12.427Z,95.70
2023-04-19T11:32:46.603Z,95.40
2023-04-19T11:35:14.698Z,88.20
2023-04-19T11:37:42.669Z,94.70
2023-04-19T11:40:16.753Z,93.30
2023-04-19T11:42:47.571Z,93.90
2023-04-19T11:45:29.188Z,89.40
2023-04-19T11:47:57.934Z,89.70
2023-04-19T11:50:36.641Z,89.50
2023-04-19T11:53:15.856Z,94.90
2023-04-19T11:55:46.218Z,84.20
2023-04-19T11:58:29.241Z,77.20
2023-04-19T12:00:58.369Z,84.90
2023-04-19T12:03:26.979Z,71.90
2023-04-19T12:05:56.372Z,75.60
2023-04-19T12:08:35.184Z,75.20
2023-04-19T12:11:05.561Z,86.00
2023-04-19T12:13:34.319Z,77.10
2023-04-19T12:16:03.670Z,79.70
2023-04-19T12:18:48.958Z,88.30
2023-04-19T12:21:27.834Z,63.40
2023-04-19T12:23:57.663Z,62.40
2023-04-19T12:26:28.292Z,58.80
2023-04-19T12:28:56.414Z,58.60
2023-04-19T12:31:24.782Z,58.50
2023-04-19T12:33:52.979Z,59.10
2023-04-19T12:36:21.373Z,59.40
2023-04-19T12:41:17.747Z,65.30
2023-04-19T12:43:46.915Z,63.40
2023-04-19T12:46:14.689Z,65.70
2023-04-19T12:48:42.504Z,61.40
2023-04-19T12:51:10.368Z,57.00
2023-04-19T12:53:38.165Z,55.30
2023-04-19T12:56:07.503Z,55.80
2023-04-19T12:58:35.577Z,53.20
2023-04-19T13:01:04.769Z,54.40
2023-04-19T13:03:36.673Z,55.70
2023-04-19T13:06:05.007Z,49.70
2023-04-19T13:08:44.170Z,47.90
2023-04-19T13:11:14.698Z,49.10
2023-04-19T13:13:42.562Z,44.80
2023-04-19T13:16:11.824Z,47.10
2023-04-19T13:18:39.612Z,46.70
2023-04-19T13:21:08.868Z,44.60
2023-04-19T13:23:36.668Z,47.70
2023-04-19T13:26:04.598Z,35.80
2023-04-19T13:28:35.515Z,24.80
2023-04-19T13:31:03.982Z,18.30
2023-04-19T13:33:33.264Z,12.20
2023-04-19T13:36:01.285Z,9.10
2023-04-19T13:38:29.073Z,10.10
2023-04-19T13:40:57.140Z,10.60
2023-04-19T13:43:25.199Z,11.70
2023-04-19T13:45:53.213Z,10.50
2023-04-19T13:48:21.113Z,10.50
2023-04-19T13:50:51.747Z,11.50
2023-04-19T13:53:19.634Z,14.60
2023-04-19T13:55:47.612Z,16.30
2023-04-19T13:58:15.545Z,18.30
2023-04-19T14:00:43.435Z,20.60
2023-04-19T14:03:11.607Z,20.00
2023-04-19T14:05:39.523Z,19.60
2023-04-19T14:08:08.787Z,19.50
2023-04-19T14:15:57.670Z,20.10
2023-04-19T14:18:25.516Z,20.70
2023-04-19T14:20:53.534Z,20.80
2023-04-19T14:23:22.878Z,20.30
2023-04-19T14:25:50.908Z,20.80
2023-04-19T14:28:18.734Z,22.70
2023-04-19T14:30:46.515Z,19.60
2023-04-19T14:33:14.426Z,20.50
2023-04-19T14:35:43.094Z,20.20
2023-04-19T14:38:11.123Z,21.30
2023-04-19T14:40:40.344Z,19.80
2023-04-19T14:43:08.075Z,19.40
2023-04-19T14:45:38.211Z,20.00
2023-04-19T14:48:06.683Z,19.80
2023-04-19T14:53:02.683Z,22.20
2023-04-19T14:55:30.571Z,21.30
2023-04-19T14:57:59.784Z,22.10
2023-04-19T15:00:28.604Z,23.10
2023-04-19T15:02:56.864Z,23.60
2023-04-19T15:05:28.629Z,22.40
2023-04-19T15:07:56.552Z,23.70
2023-04-19T15:10:24.373Z,32.50
2023-04-19T15:12:52.239Z,20.90
2023-04-19T15:15:21.920Z,21.70
2023-04-19T15:17:51.096Z,22.00
2023-04-19T15:20:19.387Z,22.20
2023-04-19T15:22:47.265Z,22.60
2023-04-19T15:25:15.117Z,22.70
2023-04-19T15:27:43.353Z,22.10
2023-04-19T15:30:12.386Z,23.00
2023-04-19T15:32:43.993Z,25.40
2023-04-19T15:35:12.539Z,25.40
2023-04-19T15:37:41.172Z,25.10
2023-04-19T15:40:12.529Z,25.80
2023-04-19T15:42:40.602Z,26.60
2023-04-19T15:45:09.530Z,24.00
2023-04-19T15:47:41.521Z,23.70
2023-04-19T15:50:10.595Z,25.00
2023-04-19T15:52:38.365Z,25.60
2023-04-19T15:55:06.839Z,25.90
2023-04-19T15:57:34.608Z,26.10
2023-04-19T16:00:02.382Z,25.10
2023-04-19T16:02:30.250Z,25.50
2023-04-19T16:04:59.559Z,25.10
2023-04-19T16:07:28.366Z,25.70
2023-04-19T16:09:56.288Z,24.20
2023-04-19T16:14:53.535Z,24.10
2023-04-19T16:17:21.342Z,24.40
2023-04-19T16:19:49.156Z,24.20
2023-04-19T16:22:18.415Z,24.20
2023-04-19T16:24:47.346Z,25.20
2023-04-19T16:27:15.228Z,25.70
2023-04-19T16:29:43.016Z,26.00
2023-04-19T16:32:11.072Z,24.90
2023-04-19T16:34:38.914Z,25.80
2023-04-19T16:37:06.713Z,25.20
2023-04-19T16:39:35.864Z,24.50
2023-04-19T16:42:03.654Z,24.10
2023-04-19T16:44:31.428Z,24.00
2023-04-19T16:46:59.336Z,23.90
2023-04-19T16:49:27.109Z,22.60
2023-04-19T16:51:54.881Z,24.30
2023-04-19T16:56:52.317Z,21.80
2023-04-19T16:59:20.171Z,22.60
2023-04-19T17:01:48.060Z,24.10
2023-04-19T17:04:16.076Z,24.30
2023-04-19T17:06:44.170Z,23.70
2023-04-19T17:09:12.179Z,24.30
2023-04-19T17:11:39.918Z,25.70
2023-04-19T17:14:09.047Z,25.40
2023-04-19T17:16:36.878Z,23.90
2023-04-19T17:19:04.659Z,24.70
2023-04-19T17:21:32.483Z,24.90
2023-04-19T17:24:00.344Z,23.30
2023-04-19T17:26:28.798Z,22.50
2023-04-19T17:28:56.695Z,21.30
2023-04-19T17:31:25.933Z,20.20
2023-04-19T17:33:53.803Z,21.90
2023-04-19T17:36:21.570Z,23.10
2023-04-19T17:38:49.377Z,21.40
2023-04-19T17:41:17.196Z,21.70
2023-04-19T17:43:45.544Z,20.70
2023-04-19T17:46:13.981Z,21.70
2023-04-19T17:48:43.161Z,21.50
2023-04-19T17:51:10.938Z,21.90
2023-04-19T17:53:38.692Z,21.90
2023-04-19T17:56:06.722Z,22.10
2023-04-19T17:58:35.993Z,21.80
2023-04-19T18:01:04.306Z,21.10
2023-04-19T18:03:32.504Z,22.50
2023-04-19T18:06:02.101Z,21.60
2023-04-19T18:08:29.904Z,21.50
2023-04-19T18:10:57.696Z,18.90
2023-04-19T18:13:25.661Z,19.00
2023-04-19T18:15:53.498Z,17.90
2023-04-19T18:18:21.339Z,18.40
2023-04-19T18:20:49.711Z,18.60
2023-04-19T18:23:18.819Z,39.60
2023-04-19T18:25:53.644Z,19.20
2023-04-19T18:28:21.559Z,19.70
2023-04-19T18:30:49.396Z,20.60
2023-04-19T18:33:17.241Z,20.10
2023-04-19T18:35:45.614Z,20.80
2023-04-19T18:38:13.546Z,21.30
2023-04-19T18:40:42.722Z,21.40
2023-04-19T18:43:10.692Z,22.90
2023-04-19T18:45:38.569Z,29.50
2023-04-19T18:50:34.931Z,22.30
2023-04-19T18:53:03.213Z,21.30
2023-04-19T18:55:31.913Z,21.50
2023-04-19T18:58:01.616Z,21.20
2023-04-19T19:00:33.260Z,21.90
2023-04-19T19:03:02.847Z,21.00
2023-04-19T19:05:32.155Z,22.10
2023-04-19T19:08:00.620Z,22.50
2023-04-19T19:10:53.954Z,22.80
2023-04-19T19:13:19.692Z,23.50
2023-04-19T19:15:47.481Z,25.20
2023-04-19T19:18:16.753Z,24.90
2023-04-19T19:20:44.662Z,24.70
2023-04-19T19:25:44.231Z,24.60
2023-04-19T19:28:12.555Z,24.90
2023-04-19T19:30:45.018Z,25.50
2023-04-19T19:35:47.572Z,24.50
2023-04-19T19:38:16.373Z,24.90
2023-04-19T19:41:13.989Z,24.40
2023-04-19T19:43:32.060Z,24.50
2023-04-19T19:46:01.507Z,25.30
2023-04-19T19:48:30.361Z,25.00
2023-04-19T19:53:32.254Z,25.20
2023-04-19T19:56:00.588Z,25.80
2023-04-19T19:58:48.157Z,25.70
2023-04-19T20:01:18.283Z,25.60
2023-04-19T20:03:46.487Z,26.00
2023-04-19T20:08:47.120Z,30.70
2023-04-19T20:11:15.065Z,28.00
2023-04-19T20:13:42.972Z,30.50
2023-04-19T20:16:10.851Z,27.50
2023-04-19T20:18:42.388Z,27.50
2023-04-19T20:26:08.244Z,28.30
2023-04-19T20:28:36.378Z,28.10
2023-04-19T20:31:04.275Z,28.60
2023-04-19T20:33:34.911Z,29.20
2023-04-19T20:36:04.454Z,29.70
2023-04-19T20:38:34.399Z,29.40
2023-04-19T20:41:08.183Z,30.10
2023-04-19T20:43:36.421Z,29.90
2023-04-19T20:46:04.332Z,29.20
2023-04-19T20:48:34.160Z,29.80
2023-04-19T20:51:02.030Z,29.80
2023-04-19T20:56:08.136Z,29.60
2023-04-19T20:58:37.722Z,29.50
2023-04-19T21:01:05.876Z,30.10
2023-04-19T21:03:33.949Z,32.10
2023-04-19T21:06:01.784Z,33.50
2023-04-19T21:08:36.170Z,34.00
2023-04-19T21:11:04.174Z,34.80
2023-04-19T21:13:33.037Z,34.60
2023-04-19T21:16:00.879Z,35.10
2023-04-19T21:18:31.339Z,35.30
2023-04-19T21:21:00.466Z,35.20
2023-04-19T21:23:28.381Z,33.20
2023-04-19T21:26:11.020Z,30.80
2023-04-19T21:31:11.713Z,30.00
2023-04-19T21:33:39.762Z,31.00
2023-04-19T21:36:08.006Z,32.50
2023-04-19T21:38:35.963Z,33.20
2023-04-19T21:41:07.052Z,35.20
2023-04-19T21:43:34.990Z,37.30
2023-04-19T21:46:04.976Z,38.70
2023-04-19T21:51:01.946Z,38.60
2023-04-19T21:53:29.744Z,39.10
2023-04-19T21:58:27.197Z,38.80
2023-04-19T22:00:55.080Z,40.10
2023-04-19T22:03:23.040Z,40.10
2023-04-19T22:05:51.017Z,40.40
2023-04-19T22:08:18.847Z,41.10
2023-04-19T22:10:46.699Z,40.90
2023-04-19T22:13:17.463Z,41.00
2023-04-19T22:15:46.564Z,40.30
2023-04-19T22:18:14.338Z,40.70
2023-04-19T22:20:42.137Z,41.10
2023-04-19T22:23:09.959Z,40.70
2023-04-19T22:25:37.865Z,41.00
2023-04-19T22:28:07.508Z,41.70
2023-04-19T22:33:05.420Z,41.70
2023-04-19T22:35:33.228Z,42.70
2023-04-19T22:38:01.321Z,41.80
2023-04-19T22:40:29.133Z,41.90
2023-04-19T22:45:24.976Z,43.00
2023-04-19T22:47:52.781Z,43.10
2023-04-19T22:50:23.444Z,43.40
2023-04-19T22:52:51.662Z,44.20
2023-04-19T22:55:19.490Z,44.20
2023-04-19T22:57:47.272Z,44.10
2023-04-19T23:00:16.800Z,45.00
2023-04-19T23:02:44.742Z,45.90
2023-04-19T23:05:12.711Z,46.90
2023-04-19T23:07:42.932Z,46.50
2023-04-19T23:10:12.238Z,47.30
2023-04-19T23:12:40.010Z,47.70
2023-04-19T23:15:10.405Z,48.00
2023-04-19T23:17:39.370Z,51.60
2023-04-19T23:20:09.496Z,48.70
2023-04-19T23:22:37.398Z,49.60
2023-04-19T23:25:07.645Z,50.10
2023-04-19T23:27:35.865Z,50.50
2023-04-19T23:30:03.806Z,51.50
2023-04-19T23:32:31.745Z,52.00
2023-04-19T23:34:59.557Z,51.60
2023-04-19T23:37:27.359Z,52.10
2023-04-19T23:39:55.070Z,52.60
2023-04-19T23:42:24.138Z,54.00
2023-04-19T23:44:54.283Z,52.80
2023-04-19T23:52:22.508Z,53.90
2023-04-19T23:54:50.555Z,53.30
2023-04-19T23:57:19.767Z,55.00
2023-04-19T23:59:49.045Z,55.30
